Time;durP1;ratioP1;P1;durP2;ratioP2;P2;SDS_P1;SDS_P2;PMS_P1;PMS_P2;Temp;Humidity;BMP_temperature;BMP_pressure;BME280_temperature;BME280_humidity;BME280_pressure;Samples;Min_cycle;Max_cycle;Signal;HPM_P1;HPM_P2
2023/06/11 00:01:53;;;;;;;8.68;4.72;;;;;;;;;;5060735;27;93068;-78
2023/06/11 00:04:24;;;;;;;10.93;5.07;;;;;;;;;;5061456;27;92482;-78
2023/06/11 00:06:53;;;;;;;10.07;5.50;;;;;;;;;;5062683;27;94484;-78
2023/06/11 00:09:22;;;;;;;10.55;5.50;;;;;;;;;;5061900;27;92212;-78
2023/06/11 00:11:48;;;;;;;8.18;4.95;;;;;;;;;;5061089;27;92528;-78
2023/06/11 00:14:15;;;;;;;12.25;6.15;;;;;;;;;;5061465;27;93327;-78
2023/06/11 00:16:43;;;;;;;9.10;5.38;;;;;;;;;;5062282;27;92073;-79
2023/06/11 00:19:10;;;;;;;12.25;5.38;;;;;;;;;;5075801;27;92690;-79
2023/06/11 00:21:40;;;;;;;8.85;5.15;;;;;;;;;;5080314;27;94596;-78
2023/06/11 00:24:07;;;;;;;11.55;5.50;;;;;;;;;;5072948;27;91551;-79
2023/06/11 00:26:34;;;;;;;11.45;5.68;;;;;;;;;;5064767;27;92800;-80
2023/06/11 00:29:00;;;;;;;10.55;5.50;;;;;;;;;;5065938;27;92624;-79
2023/06/11 00:31:26;;;;;;;13.20;5.82;;;;;;;;;;5079296;27;95144;-79
2023/06/11 00:33:53;;;;;;;11.25;5.82;;;;;;;;;;5080480;27;92680;-79
2023/06/11 00:36:20;;;;;;;12.05;6.45;;;;;;;;;;5078740;27;91992;-79
2023/06/11 00:38:48;;;;;;;13.60;6.35;;;;;;;;;;5062987;27;92496;-78
2023/06/11 00:41:14;;;;;;;14.52;5.97;;;;;;;;;;5059279;27;94243;-79
2023/06/11 00:43:41;;;;;;;13.50;5.60;;;;;;;;;;5061961;27;92552;-77
2023/06/11 00:46:11;;;;;;;12.00;6.20;;;;;;;;;;5061950;27;92449;-78
2023/06/11 00:48:38;;;;;;;10.20;5.93;;;;;;;;;;5063842;27;94735;-76
2023/06/11 00:51:05;;;;;;;11.35;5.53;;;;;;;;;;5061213;27;94164;-77
2023/06/11 00:53:32;;;;;;;10.45;5.72;;;;;;;;;;5062213;27;99563;-78
2023/06/11 00:55:58;;;;;;;12.27;5.90;;;;;;;;;;5060464;27;94975;-77
2023/06/11 00:58:27;;;;;;;10.02;5.60;;;;;;;;;;5061643;27;95173;-78
2023/06/11 01:00:56;;;;;;;10.95;5.80;;;;;;;;;;5059718;27;94507;-78
2023/06/11 01:03:26;;;;;;;11.45;5.40;;;;;;;;;;5062869;27;92111;-78
2023/06/11 01:06:05;;;;;;;10.00;5.30;;;;;;;;;;5080841;27;95601;-78
2023/06/11 01:08:34;;;;;;;10.48;5.80;;;;;;;;;;5082256;27;93143;-78
2023/06/11 01:11:02;;;;;;;10.95;6.07;;;;;;;;;;5082288;27;92580;-78
2023/06/11 01:13:32;;;;;;;12.20;6.38;;;;;;;;;;5060575;27;96411;-78
2023/06/11 01:16:02;;;;;;;9.80;5.93;;;;;;;;;;5060296;27;92301;-78
2023/06/11 01:18:32;;;;;;;10.77;5.78;;;;;;;;;;5062846;27;93972;-77
2023/06/11 01:21:04;;;;;;;8.85;5.22;;;;;;;;;;5058324;27;96759;-77
2023/06/11 01:23:41;;;;;;;9.05;5.57;;;;;;;;;;5059558;27;92175;-76
2023/06/11 01:26:08;;;;;;;11.02;5.75;;;;;;;;;;5071027;27;92300;-77
2023/06/11 01:28:36;;;;;;;11.35;5.80;;;;;;;;;;5080133;27;95083;-78
2023/06/11 01:31:15;;;;;;;12.43;5.88;;;;;;;;;;5080314;27;92105;-78
2023/06/11 01:33:42;;;;;;;10.85;6.00;;;;;;;;;;5079474;27;99515;-78
2023/06/11 01:36:14;;;;;;;11.50;5.93;;;;;;;;;;5066803;27;92123;-78
2023/06/11 01:38:44;;;;;;;11.18;5.53;;;;;;;;;;5063886;27;94967;-78
2023/06/11 01:41:17;;;;;;;10.60;5.68;;;;;;;;;;5058983;27;95173;-78
2023/06/11 01:43:43;;;;;;;9.05;5.70;;;;;;;;;;5084164;27;92641;-78
2023/06/11 01:46:10;;;;;;;10.65;5.72;;;;;;;;;;5081941;27;95019;-78
2023/06/11 01:48:37;;;;;;;11.23;5.75;;;;;;;;;;5064017;27;92909;-78
2023/06/11 01:51:03;;;;;;;9.35;5.70;;;;;;;;;;5047304;27;92044;-78
2023/06/11 01:53:30;;;;;;;11.52;5.78;;;;;;;;;;5069801;27;92735;-78
2023/06/11 01:55:57;;;;;;;10.35;6.20;;;;;;;;;;5066261;27;95179;-78
2023/06/11 01:58:24;;;;;;;12.90;6.00;;;;;;;;;;5059708;27;94787;-77
2023/06/11 02:00:50;;;;;;;10.82;5.90;;;;;;;;;;5083195;27;95138;-78
2023/06/11 02:03:17;;;;;;;13.45;6.63;;;;;;;;;;5066707;27;91494;-78
2023/06/11 02:05:44;;;;;;;12.63;6.32;;;;;;;;;;5084012;27;94326;-78
2023/06/11 02:08:10;;;;;;;11.48;6.35;;;;;;;;;;5077063;27;95187;-78
2023/06/11 02:10:37;;;;;;;10.30;5.88;;;;;;;;;;5082541;27;94735;-78
2023/06/11 02:13:04;;;;;;;13.05;6.40;;;;;;;;;;5085082;27;95269;-78
2023/06/11 02:15:30;;;;;;;11.77;6.10;;;;;;;;;;5082805;27;95295;-78
2023/06/11 02:17:57;;;;;;;11.15;6.68;;;;;;;;;;5083901;27;92585;-79
2023/06/11 02:20:23;;;;;;;11.63;6.90;;;;;;;;;;5063054;27;92080;-79
2023/06/11 02:22:50;;;;;;;11.13;6.55;;;;;;;;;;5064623;27;93518;-79
2023/06/11 02:25:17;;;;;;;10.50;6.18;;;;;;;;;;5081701;27;93266;-79
2023/06/11 02:27:43;;;;;;;14.65;7.07;;;;;;;;;;5076024;27;92063;-79
2023/06/11 02:30:10;;;;;;;10.00;5.95;;;;;;;;;;5072750;27;92144;-79
2023/06/11 02:32:37;;;;;;;11.32;6.47;;;;;;;;;;5063703;27;92148;-78
2023/06/11 02:35:03;;;;;;;10.82;6.03;;;;;;;;;;5064550;27;97448;-78
2023/06/11 02:37:30;;;;;;;12.07;6.47;;;;;;;;;;5067984;27;92258;-77
2023/06/11 02:39:57;;;;;;;12.23;6.60;;;;;;;;;;5068727;27;93598;-77
2023/06/11 02:42:23;;;;;;;11.68;6.88;;;;;;;;;;5072750;27;92177;-77
2023/06/11 02:44:50;;;;;;;12.10;6.68;;;;;;;;;;5058769;27;94938;-77
2023/06/11 02:47:16;;;;;;;10.70;6.60;;;;;;;;;;5082196;27;92668;-77
2023/06/11 02:49:43;;;;;;;12.30;6.60;;;;;;;;;;5077136;27;92568;-77
2023/06/11 02:52:10;;;;;;;12.25;6.78;;;;;;;;;;5067991;27;95144;-79
2023/06/11 02:54:37;;;;;;;10.68;6.72;;;;;;;;;;5069458;27;92815;-79
2023/06/11 02:57:03;;;;;;;11.75;6.80;;;;;;;;;;5061651;27;92460;-80
2023/06/11 02:59:30;;;;;;;11.77;6.95;;;;;;;;;;5062588;27;95066;-79
2023/06/11 03:01:56;;;;;;;12.50;7.78;;;;;;;;;;5069122;27;92136;-79
2023/06/11 03:04:23;;;;;;;13.60;7.60;;;;;;;;;;5062288;27;95062;-77
2023/06/11 03:06:49;;;;;;;12.13;6.78;;;;;;;;;;5060699;27;95325;-78
2023/06/11 03:09:17;;;;;;;12.45;8.38;;;;;;;;;;5061707;27;92043;-77
2023/06/11 03:11:43;;;;;;;14.60;8.27;;;;;;;;;;5061663;27;94317;-77
2023/06/11 03:14:10;;;;;;;13.68;8.43;;;;;;;;;;5063392;27;93119;-77
2023/06/11 03:16:37;;;;;;;13.13;8.35;;;;;;;;;;5063917;27;91347;-76
2023/06/11 03:19:03;;;;;;;13.05;7.93;;;;;;;;;;5077519;27;93416;-78
2023/06/11 03:21:31;;;;;;;12.27;7.72;;;;;;;;;;5084609;27;95342;-78
2023/06/11 03:23:58;;;;;;;12.82;7.90;;;;;;;;;;5081026;27;95382;-78
2023/06/11 03:26:25;;;;;;;13.10;8.65;;;;;;;;;;5071096;27;95391;-78
2023/06/11 03:28:52;;;;;;;12.25;7.78;;;;;;;;;;5072709;27;92222;-79
2023/06/11 03:31:21;;;;;;;11.50;7.30;;;;;;;;;;5078977;27;94768;-79
2023/06/11 03:33:49;;;;;;;12.75;7.47;;;;;;;;;;5069497;27;94772;-79
2023/06/11 03:36:17;;;;;;;11.98;7.70;;;;;;;;;;5062762;27;92302;-80
2023/06/11 03:38:44;;;;;;;11.77;7.90;;;;;;;;;;5060916;27;94657;-79
2023/06/11 03:41:14;;;;;;;14.00;7.85;;;;;;;;;;5060098;27;94258;-79
2023/06/11 03:43:41;;;;;;;11.63;7.63;;;;;;;;;;5057933;27;92225;-78
2023/06/11 03:46:07;;;;;;;13.68;8.02;;;;;;;;;;5062336;27;92676;-79
2023/06/11 03:48:34;;;;;;;11.32;7.43;;;;;;;;;;5060848;27;94414;-78
2023/06/11 03:51:01;;;;;;;12.38;7.35;;;;;;;;;;5061067;27;94777;-77
2023/06/11 03:53:28;;;;;;;12.75;6.65;;;;;;;;;;5075709;27;94765;-78
2023/06/11 03:55:55;;;;;;;11.15;7.30;;;;;;;;;;5080633;27;91969;-78
2023/06/11 03:58:21;;;;;;;12.98;7.15;;;;;;;;;;5070542;27;94027;-77
2023/06/11 04:00:49;;;;;;;10.13;7.03;;;;;;;;;;5068914;27;94939;-78
2023/06/11 04:03:16;;;;;;;13.00;7.63;;;;;;;;;;5060421;27;92591;-79
2023/06/11 04:05:43;;;;;;;13.45;8.07;;;;;;;;;;5065891;27;92731;-77
2023/06/11 04:08:10;;;;;;;12.95;7.90;;;;;;;;;;5061659;27;92078;-77
2023/06/11 04:10:37;;;;;;;;;;;;;;;;;;5061269;27;95280;-76
2023/06/11 04:13:04;;;;;;;13.90;7.90;;;;;;;;;;5042917;27;112936;-78
2023/06/11 04:15:30;;;;;;;12.13;7.55;;;;;;;;;;5074477;27;92254;-78
2023/06/11 04:18:00;;;;;;;12.23;7.60;;;;;;;;;;5082338;27;93117;-78
2023/06/11 04:20:27;;;;;;;14.57;7.70;;;;;;;;;;5081285;27;94645;-78
2023/06/11 04:22:54;;;;;;;11.52;8.27;;;;;;;;;;5068646;27;92099;-79
2023/06/11 04:25:21;;;;;;;12.40;8.30;;;;;;;;;;5046112;27;94363;-79
2023/06/11 04:27:47;;;;;;;12.60;8.45;;;;;;;;;;5077962;27;92130;-79
2023/06/11 04:30:14;;;;;;;12.73;8.05;;;;;;;;;;5071473;27;94327;-79
2023/06/11 04:32:43;;;;;;;12.13;7.95;;;;;;;;;;5078381;27;95102;-79
2023/06/11 04:35:10;;;;;;;13.85;8.23;;;;;;;;;;5078413;27;92381;-79
2023/06/11 04:37:43;;;;;;;10.48;6.97;;;;;;;;;;5076513;27;94976;-79
2023/06/11 04:40:23;;;;;;;11.32;7.57;;;;;;;;;;5061573;27;93193;-79
2023/06/11 04:42:50;;;;;;;13.63;8.48;;;;;;;;;;5073204;27;94039;-78
2023/06/11 04:45:18;;;;;;;10.18;6.97;;;;;;;;;;5059355;27;93973;-79
2023/06/11 04:47:48;;;;;;;13.45;7.10;;;;;;;;;;5062973;27;95282;-79
2023/06/11 04:50:20;;;;;;;11.75;7.78;;;;;;;;;;5060230;27;96143;-79
2023/06/11 04:52:51;;;;;;;12.85;7.97;;;;;;;;;;5055691;27;95165;-79
2023/06/11 04:55:24;;;;;;;11.60;7.13;;;;;;;;;;5061655;27;91273;-79
2023/06/11 04:57:54;;;;;;;11.25;7.28;;;;;;;;;;5059728;27;93981;-79
2023/06/11 05:00:23;;;;;;;11.95;7.05;;;;;;;;;;5065919;27;95329;-77
2023/06/11 05:02:51;;;;;;;14.75;7.10;;;;;;;;;;5078170;27;94539;-76
2023/06/11 05:05:19;;;;;;;15.18;7.38;;;;;;;;;;5062668;27;94977;-77
2023/06/11 05:07:45;;;;;;;17.15;6.97;;;;;;;;;;5061080;27;95361;-76
2023/06/11 05:10:13;;;;;;;11.73;7.00;;;;;;;;;;5079327;27;92580;-76
2023/06/11 05:12:40;;;;;;;11.98;7.10;;;;;;;;;;5058817;27;94905;-77
2023/06/11 05:15:07;;;;;;;9.73;6.47;;;;;;;;;;5059470;27;92766;-77
2023/06/11 05:17:35;;;;;;;10.98;7.25;;;;;;;;;;5060792;27;94627;-77
2023/06/11 05:20:03;;;;;;;11.50;6.95;;;;;;;;;;5069809;27;92032;-77
2023/06/11 05:22:30;;;;;;;10.80;6.50;;;;;;;;;;5058792;27;92391;-76
2023/06/11 05:24:56;;;;;;;10.82;7.25;;;;;;;;;;5050667;27;92994;-77
2023/06/11 05:27:28;;;;;;;10.85;7.03;;;;;;;;;;5057022;27;98138;-77
2023/06/11 05:29:56;;;;;;;11.10;6.88;;;;;;;;;;5069174;27;92413;-77
2023/06/11 05:32:23;;;;;;;11.30;7.45;;;;;;;;;;5065749;27;94867;-76
2023/06/11 05:34:49;;;;;;;10.80;7.03;;;;;;;;;;5070485;27;92157;-77
2023/06/11 05:37:18;;;;;;;12.27;8.07;;;;;;;;;;5078779;27;93372;-76
2023/06/11 05:39:45;;;;;;;12.27;7.53;;;;;;;;;;5045993;27;92711;-76
2023/06/11 05:42:12;;;;;;;11.35;7.20;;;;;;;;;;5064967;27;92364;-76
2023/06/11 05:44:40;;;;;;;11.82;7.20;;;;;;;;;;5066602;27;91986;-76
2023/06/11 05:47:08;;;;;;;11.95;7.47;;;;;;;;;;5078219;27;95539;-76
2023/06/11 05:49:35;;;;;;;11.45;7.35;;;;;;;;;;5079322;27;92132;-76
2023/06/11 05:52:02;;;;;;;11.57;7.95;;;;;;;;;;5076070;27;95114;-77
2023/06/11 05:54:29;;;;;;;11.60;7.55;;;;;;;;;;5068742;27;92702;-77
2023/06/11 05:56:56;;;;;;;11.30;7.00;;;;;;;;;;5058509;27;94222;-79
2023/06/11 05:59:23;;;;;;;11.60;7.22;;;;;;;;;;5058153;27;95634;-79
2023/06/11 06:01:50;;;;;;;12.75;7.47;;;;;;;;;;5077211;27;92123;-78
2023/06/11 06:04:19;;;;;;;11.13;6.97;;;;;;;;;;5079297;27;94361;-78
2023/06/11 06:06:46;;;;;;;;;;;;;;;;;;5071966;27;95499;-80
2023/06/11 06:09:14;;;;;;;13.23;8.25;;;;;;;;;;5059814;27;108460;-77
2023/06/11 06:11:41;;;;;;;12.27;7.05;;;;;;;;;;5058638;27;94488;-77
2023/06/11 06:14:08;;;;;;;11.15;7.10;;;;;;;;;;5043542;27;95134;-77
2023/06/11 06:16:35;;;;;;;12.25;7.97;;;;;;;;;;5060175;27;95884;-77
2023/06/11 06:19:06;;;;;;;12.25;7.57;;;;;;;;;;5065803;27;92146;-78
2023/06/11 06:21:33;;;;;;;11.55;7.70;;;;;;;;;;5069363;27;92436;-76
2023/06/11 06:24:01;;;;;;;12.20;7.45;;;;;;;;;;5062339;27;95033;-77
2023/06/11 06:26:28;;;;;;;13.65;7.65;;;;;;;;;;5061959;27;94609;-77
2023/06/11 06:28:54;;;;;;;11.38;7.13;;;;;;;;;;5061996;27;92960;-76
2023/06/11 06:31:22;;;;;;;10.85;6.93;;;;;;;;;;5081175;27;93083;-78
2023/06/11 06:33:51;;;;;;;11.48;6.80;;;;;;;;;;5062926;27;95043;-76
2023/06/11 06:36:20;;;;;;;10.77;7.00;;;;;;;;;;5081038;27;92163;-77
2023/06/11 06:38:47;;;;;;;11.35;7.22;;;;;;;;;;5062230;27;92961;-76
2023/06/11 06:41:14;;;;;;;11.73;6.45;;;;;;;;;;5059111;27;94801;-77
2023/06/11 06:43:41;;;;;;;12.95;7.50;;;;;;;;;;5066916;27;97392;-76
2023/06/11 06:46:12;;;;;;;11.25;7.25;;;;;;;;;;5061966;27;94376;-76
2023/06/11 06:48:39;;;;;;;10.15;6.82;;;;;;;;;;5065714;27;92549;-77
2023/06/11 06:51:06;;;;;;;10.95;7.00;;;;;;;;;;5080760;27;95352;-76
2023/06/11 06:53:33;;;;;;;10.23;6.90;;;;;;;;;;5080125;27;95383;-76
2023/06/11 06:56:00;;;;;;;10.32;6.85;;;;;;;;;;5061962;27;92319;-76
2023/06/11 06:58:29;;;;;;;11.25;7.22;;;;;;;;;;5082915;27;95453;-75
2023/06/11 07:00:56;;;;;;;10.95;7.53;;;;;;;;;;5069574;27;92268;-76
2023/06/11 07:03:23;;;;;;;12.13;7.07;;;;;;;;;;5053325;27;94361;-76
2023/06/11 07:05:50;;;;;;;11.98;6.97;;;;;;;;;;5079785;27;97472;-75
2023/06/11 07:08:17;;;;;;;10.45;7.10;;;;;;;;;;5081501;27;92250;-75
2023/06/11 07:10:48;;;;;;;13.10;7.03;;;;;;;;;;5076599;27;95755;-75
2023/06/11 07:13:17;;;;;;;10.20;6.75;;;;;;;;;;5072737;27;93542;-75
2023/06/11 07:15:44;;;;;;;11.95;7.35;;;;;;;;;;5082085;27;92070;-76
2023/06/11 07:18:11;;;;;;;12.10;6.80;;;;;;;;;;5075131;27;94657;-78
2023/06/11 07:20:37;;;;;;;10.80;7.05;;;;;;;;;;5067319;27;93476;-79
2023/06/11 07:23:04;;;;;;;11.27;6.88;;;;;;;;;;5061765;27;94680;-79
2023/06/11 07:25:31;;;;;;;11.68;7.15;;;;;;;;;;5060171;27;95843;-80
2023/06/11 07:27:59;;;;;;;10.85;7.18;;;;;;;;;;5061208;27;92238;-77
2023/06/11 07:30:27;;;;;;;11.05;7.20;;;;;;;;;;5070862;27;95508;-79
2023/06/11 07:32:54;;;;;;;;;;;;;;;;;;5081366;27;94683;-79
2023/06/11 07:35:21;;;;;;;11.63;7.60;;;;;;;;;;5070655;27;92185;-79
2023/06/11 07:37:48;;;;;;;10.73;7.28;;;;;;;;;;5063565;27;95032;-78
2023/06/11 07:40:15;;;;;;;11.25;7.50;;;;;;;;;;5080981;27;94819;-78
2023/06/11 07:42:42;;;;;;;12.48;7.30;;;;;;;;;;5065194;27;93478;-79
2023/06/11 07:45:09;;;;;;;11.63;7.63;;;;;;;;;;5061248;27;92906;-79
2023/06/11 07:47:36;;;;;;;12.95;7.15;;;;;;;;;;5061918;27;91626;-79
2023/06/11 07:50:03;;;;;;;12.48;8.02;;;;;;;;;;5061223;27;94055;-79
2023/06/11 07:52:30;;;;;;;13.07;8.43;;;;;;;;;;5072074;27;94816;-79
2023/06/11 07:55:04;;;;;;;11.65;7.53;;;;;;;;;;5071043;27;95384;-78
2023/06/11 07:57:30;;;;;;;12.00;7.72;;;;;;;;;;5065569;27;97782;-79
2023/06/11 07:59:57;;;;;;;11.77;7.57;;;;;;;;;;5060696;27;92170;-78
2023/06/11 08:02:23;;;;;;;9.80;6.90;;;;;;;;;;5061899;27;92490;-78
2023/06/11 08:04:50;;;;;;;14.30;8.18;;;;;;;;;;5064895;27;92474;-79
2023/06/11 08:07:17;;;;;;;11.68;7.53;;;;;;;;;;5059321;27;92558;-80
2023/06/11 08:09:43;;;;;;;16.98;8.18;;;;;;;;;;5078560;27;92401;-78
2023/06/11 08:12:11;;;;;;;11.43;7.80;;;;;;;;;;5062180;27;91957;-80
2023/06/11 08:14:38;;;;;;;12.18;7.63;;;;;;;;;;5065077;27;92423;-79
2023/06/11 08:17:05;;;;;;;10.65;7.22;;;;;;;;;;5073862;27;94973;-79
2023/06/11 08:19:31;;;;;;;11.18;7.30;;;;;;;;;;5077328;27;100243;-80
2023/06/11 08:22:00;;;;;;;11.30;8.32;;;;;;;;;;5075946;27;92336;-81
2023/06/11 08:24:26;;;;;;;11.50;8.50;;;;;;;;;;5055000;27;94925;-79
2023/06/11 08:26:53;;;;;;;12.38;8.70;;;;;;;;;;5082111;27;92561;-79
2023/06/11 08:29:20;;;;;;;12.00;7.82;;;;;;;;;;5059682;27;94922;-79
2023/06/11 08:31:47;;;;;;;;;;;;;;;;;;5060068;27;92666;-78
2023/06/11 08:34:13;;;;;;;14.13;7.43;;;;;;;;;;5063128;27;108732;-78
2023/06/11 08:36:43;;;;;;;10.05;6.90;;;;;;;;;;5077067;27;92372;-79
2023/06/11 08:39:10;;;;;;;10.70;6.82;;;;;;;;;;5081063;27;92543;-80
2023/06/11 08:41:36;;;;;;;11.10;6.80;;;;;;;;;;5076680;27;92081;-79
2023/06/11 08:44:03;;;;;;;10.73;6.57;;;;;;;;;;5073873;27;94987;-78
2023/06/11 08:46:33;;;;;;;9.60;6.47;;;;;;;;;;5063721;27;93002;-80
2023/06/11 08:49:04;;;;;;;9.20;5.93;;;;;;;;;;5059750;27;92712;-79
2023/06/11 08:51:35;;;;;;;10.57;6.43;;;;;;;;;;5062532;27;93378;-80
2023/06/11 08:54:01;;;;;;;9.60;6.78;;;;;;;;;;5069398;27;92056;-77
2023/06/11 08:56:28;;;;;;;9.60;5.97;;;;;;;;;;5061252;27;93077;-77
2023/06/11 08:58:55;;;;;;;8.40;5.70;;;;;;;;;;5058883;27;92906;-77
2023/06/11 09:01:23;;;;;;;10.90;6.38;;;;;;;;;;5058381;27;91430;-76
2023/06/11 09:03:49;;;;;;;10.23;6.18;;;;;;;;;;5060740;27;92016;-77
2023/06/11 09:06:17;;;;;;;9.63;5.78;;;;;;;;;;5060467;27;95176;-77
2023/06/11 09:08:56;;;;;;;10.50;6.30;;;;;;;;;;5059919;27;94703;-77
2023/06/11 09:11:22;;;;;;;8.85;6.10;;;;;;;;;;5060141;27;92752;-76
2023/06/11 09:13:49;;;;;;;10.80;6.50;;;;;;;;;;5060363;27;92411;-76
2023/06/11 09:16:15;;;;;;;9.43;6.35;;;;;;;;;;5059291;27;92405;-76
2023/06/11 09:18:42;;;;;;;10.07;6.10;;;;;;;;;;5070418;27;92309;-76
2023/06/11 09:21:11;;;;;;;11.27;7.13;;;;;;;;;;5077879;27;93675;-77
2023/06/11 09:23:38;;;;;;;15.50;7.90;;;;;;;;;;5079683;27;94352;-77
2023/06/11 09:26:05;;;;;;;11.57;7.15;;;;;;;;;;5062211;27;94334;-76
2023/06/11 09:28:33;;;;;;;14.20;7.82;;;;;;;;;;5059513;27;92089;-77
2023/06/11 09:31:00;;;;;;;11.90;7.68;;;;;;;;;;5063031;27;92442;-77
2023/06/11 09:33:28;;;;;;;11.95;7.70;;;;;;;;;;5062866;27;95047;-77
2023/06/11 09:35:54;;;;;;;11.02;7.38;;;;;;;;;;5077005;27;94837;-76
2023/06/11 09:38:21;;;;;;;13.05;7.65;;;;;;;;;;5075887;27;94454;-76
2023/06/11 09:40:53;;;;;;;11.70;7.40;;;;;;;;;;5068271;27;92211;-76
2023/06/11 09:43:23;;;;;;;12.70;7.43;;;;;;;;;;5064312;27;92752;-76
2023/06/11 09:45:52;;;;;;;11.82;7.00;;;;;;;;;;5078099;27;95895;-75
2023/06/11 09:48:20;;;;;;;11.70;6.85;;;;;;;;;;5080547;27;92291;-76
2023/06/11 09:50:50;;;;;;;11.55;6.85;;;;;;;;;;5073482;27;92378;-76
2023/06/11 09:53:21;;;;;;;9.65;6.35;;;;;;;;;;5068940;27;92733;-76
2023/06/11 09:55:50;;;;;;;9.98;6.55;;;;;;;;;;5075372;27;92944;-76
2023/06/11 09:58:24;;;;;;;9.52;6.20;;;;;;;;;;5068932;27;95267;-76
2023/06/11 10:00:58;;;;;;;8.93;6.03;;;;;;;;;;5082799;27;92026;-76
2023/06/11 10:03:25;;;;;;;10.52;6.18;;;;;;;;;;5084604;27;92735;-76
2023/06/11 10:05:51;;;;;;;11.55;6.10;;;;;;;;;;5076489;27;95144;-75
2023/06/11 10:08:22;;;;;;;13.00;5.95;;;;;;;;;;5073255;27;92287;-75
2023/06/11 10:10:53;;;;;;;9.80;5.68;;;;;;;;;;5078450;27;93168;-75
2023/06/11 10:13:30;;;;;;;9.13;5.70;;;;;;;;;;5082324;27;92603;-75
2023/06/11 10:16:00;;;;;;;20.40;6.28;;;;;;;;;;5067703;27;91274;-75
2023/06/11 10:18:29;;;;;;;16.30;5.53;;;;;;;;;;5077793;27;92708;-75
2023/06/11 10:21:00;;;;;;;22.40;6.28;;;;;;;;;;5068790;27;92208;-75
2023/06/11 10:23:35;;;;;;;12.30;5.53;;;;;;;;;;5060306;27;94461;-75
2023/06/11 10:26:02;;;;;;;12.20;5.65;;;;;;;;;;5082806;27;92678;-75
2023/06/11 10:28:41;;;;;;;16.42;5.22;;;;;;;;;;5079287;27;92226;-74
2023/06/11 10:31:07;;;;;;;;;;;;;;;;;;5084244;27;92568;-76
2023/06/11 10:33:40;;;;;;;15.68;5.25;;;;;;;;;;5078940;27;122442;-76
2023/06/11 10:36:07;;;;;;;;;;;;;;;;;;5062461;27;92779;-76
2023/06/11 10:38:39;;;;;;;8.07;4.13;;;;;;;;;;5069891;27;92304;-77
2023/06/11 10:41:06;;;;;;;9.23;3.95;;;;;;;;;;5080737;27;91483;-77
2023/06/11 10:43:35;;;;;;;9.75;4.07;;;;;;;;;;5069299;27;95961;-77
2023/06/11 10:46:12;;;;;;;9.10;3.80;;;;;;;;;;5083468;27;92587;-77
2023/06/11 10:48:48;;;;;;;9.18;3.47;;;;;;;;;;5067522;27;94623;-77
2023/06/11 10:51:15;;;;;;;6.68;3.08;;;;;;;;;;5067157;27;94783;-76
2023/06/11 10:53:42;;;;;;;6.22;3.40;;;;;;;;;;5069131;27;93768;-79
2023/06/11 10:56:09;;;;;;;7.47;3.20;;;;;;;;;;5073957;27;92133;-77
2023/06/11 10:58:36;;;;;;;7.70;3.70;;;;;;;;;;5066379;27;92662;-77
2023/06/11 11:01:06;;;;;;;6.63;3.20;;;;;;;;;;5063571;27;92121;-78
2023/06/11 11:03:33;;;;;;;8.43;3.33;;;;;;;;;;5081719;27;98038;-76
2023/06/11 11:06:00;;;;;;;8.18;3.45;;;;;;;;;;5065894;27;92145;-77
2023/06/11 11:08:28;;;;;;;6.80;3.40;;;;;;;;;;5062141;27;92215;-77
2023/06/11 11:11:01;;;;;;;8.55;3.40;;;;;;;;;;5061748;27;94057;-77
2023/06/11 11:13:27;;;;;;;;;;;;;;;;;;5061312;27;95452;-79
2023/06/11 11:15:54;;;;;;;7.90;3.50;;;;;;;;;;5062996;27;107539;-77
2023/06/11 11:18:21;;;;;;;8.32;3.55;;;;;;;;;;5072439;27;92460;-78
2023/06/11 11:20:51;;;;;;;6.97;3.78;;;;;;;;;;5074066;27;92462;-78
2023/06/11 11:23:17;;;;;;;7.65;3.65;;;;;;;;;;5082629;27;92443;-78
2023/06/11 11:25:44;;;;;;;8.73;4.00;;;;;;;;;;5083453;27;92754;-77
2023/06/11 11:28:12;;;;;;;;;;;;;;;;;;5079816;27;92604;-77
2023/06/11 11:30:39;;;;;;;6.88;3.92;;;;;;;;;;5065143;27;92004;-77
2023/06/11 11:33:06;;;;;;;6.85;3.60;;;;;;;;;;5062738;27;95265;-78
2023/06/11 11:35:44;;;;;;;7.22;3.70;;;;;;;;;;5064914;27;92185;-77
2023/06/11 11:38:10;;;;;;;6.00;3.30;;;;;;;;;;5066762;27;94914;-77
2023/06/11 11:40:37;;;;;;;6.88;3.33;;;;;;;;;;5071245;27;94475;-77
2023/06/11 11:43:03;;;;;;;9.15;3.40;;;;;;;;;;5073923;27;92098;-76
2023/06/11 11:45:31;;;;;;;7.00;3.30;;;;;;;;;;5071652;27;92693;-76
2023/06/11 11:47:57;;;;;;;7.43;3.10;;;;;;;;;;5074635;27;92173;-77
2023/06/11 11:50:30;;;;;;;7.00;3.03;;;;;;;;;;5068091;27;94558;-76
2023/06/11 11:53:03;;;;;;;6.50;3.33;;;;;;;;;;5064896;27;92194;-76
2023/06/11 11:55:34;;;;;;;5.07;2.97;;;;;;;;;;5067110;27;91277;-77
2023/06/11 11:58:07;;;;;;;5.80;3.03;;;;;;;;;;5073352;27;93837;-76
2023/06/11 12:00:35;;;;;;;5.75;3.10;;;;;;;;;;5070944;27;93530;-76
2023/06/11 12:03:08;;;;;;;7.53;3.00;;;;;;;;;;5066047;27;94576;-77
2023/06/11 12:05:36;;;;;;;6.88;2.90;;;;;;;;;;5076341;27;99449;-77
2023/06/11 12:08:03;;;;;;;6.10;3.03;;;;;;;;;;5067794;27;92126;-76
2023/06/11 12:10:30;;;;;;;6.30;3.20;;;;;;;;;;5070729;27;92704;-77
2023/06/11 12:13:00;;;;;;;5.82;3.08;;;;;;;;;;5072722;27;92542;-76
2023/06/11 12:15:27;;;;;;;5.45;2.92;;;;;;;;;;5067663;27;92192;-77
2023/06/11 12:17:54;;;;;;;;;;;;;;;;;;5071399;27;92834;-77
2023/06/11 12:20:21;;;;;;;5.03;2.80;;;;;;;;;;5067709;27;93710;-77
2023/06/11 12:22:49;;;;;;;5.03;2.78;;;;;;;;;;5072381;27;92605;-77
2023/06/11 12:25:15;;;;;;;5.90;2.90;;;;;;;;;;5076617;27;92537;-78
2023/06/11 12:27:43;;;;;;;5.63;2.72;;;;;;;;;;5072470;27;95767;-78
2023/06/11 12:30:10;;;;;;;5.55;2.80;;;;;;;;;;5071623;27;94812;-77
2023/06/11 12:32:38;;;;;;;6.88;2.72;;;;;;;;;;5066558;27;93632;-77
2023/06/11 12:35:05;;;;;;;6.22;2.90;;;;;;;;;;5074673;27;92559;-78
2023/06/11 12:37:31;;;;;;;5.15;3.10;;;;;;;;;;5065629;27;96730;-77
2023/06/11 12:39:58;;;;;;;5.43;3.00;;;;;;;;;;5062768;27;92730;-76
2023/06/11 12:42:27;;;;;;;5.65;3.17;;;;;;;;;;5058132;27;92179;-76
2023/06/11 12:44:53;;;;;;;6.43;3.25;;;;;;;;;;5062259;27;92583;-76
2023/06/11 12:47:20;;;;;;;5.72;3.00;;;;;;;;;;5072565;27;92493;-78
2023/06/11 12:49:47;;;;;;;6.78;3.08;;;;;;;;;;5076979;27;92443;-78
2023/06/11 12:52:13;;;;;;;7.78;3.30;;;;;;;;;;5071034;27;95586;-78
2023/06/11 12:54:40;;;;;;;6.13;3.25;;;;;;;;;;5069455;27;92634;-78
2023/06/11 12:57:07;;;;;;;5.70;3.10;;;;;;;;;;5073082;27;92647;-79
2023/06/11 12:59:33;;;;;;;5.75;2.88;;;;;;;;;;5077034;27;93986;-78
2023/06/11 13:02:00;;;;;;;5.03;2.83;;;;;;;;;;5065549;27;93560;-78
2023/06/11 13:04:26;;;;;;;5.85;3.00;;;;;;;;;;5063833;27;92796;-78
2023/06/11 13:06:53;;;;;;;5.15;2.83;;;;;;;;;;5068828;27;93458;-78
2023/06/11 13:09:19;;;;;;;5.78;3.05;;;;;;;;;;5075170;27;91865;-78
2023/06/11 13:11:46;;;;;;;5.22;2.78;;;;;;;;;;5065106;27;92656;-78
2023/06/11 13:14:13;;;;;;;6.25;3.20;;;;;;;;;;5079127;27;92166;-78
2023/06/11 13:16:42;;;;;;;5.60;3.00;;;;;;;;;;5070539;27;94973;-79
2023/06/11 13:19:09;;;;;;;4.95;2.80;;;;;;;;;;5066784;27;92697;-80
2023/06/11 13:21:36;;;;;;;5.65;3.13;;;;;;;;;;5075499;27;92151;-79
2023/06/11 13:24:02;;;;;;;5.97;3.20;;;;;;;;;;5072547;27;92332;-76
2023/06/11 13:26:29;;;;;;;;;;;;;;;;;;5074512;27;92746;-79
2023/06/11 13:28:56;;;;;;;5.47;3.10;;;;;;;;;;5082272;27;95704;-78
2023/06/11 13:31:23;;;;;;;6.25;3.10;;;;;;;;;;5065098;27;95386;-78
2023/06/11 13:33:50;;;;;;;5.60;3.08;;;;;;;;;;5075919;27;91345;-78
2023/06/11 13:36:16;;;;;;;4.85;2.95;;;;;;;;;;5062947;27;94486;-79
2023/06/11 13:38:43;;;;;;;6.22;3.10;;;;;;;;;;5057251;27;95201;-78
2023/06/11 13:41:10;;;;;;;5.05;2.85;;;;;;;;;;5063775;27;94568;-79
2023/06/11 13:43:36;;;;;;;5.65;3.00;;;;;;;;;;5062122;27;95098;-77
2023/06/11 13:46:03;;;;;;;7.82;3.15;;;;;;;;;;5063572;27;95933;-79
2023/06/11 13:48:30;;;;;;;7.10;3.15;;;;;;;;;;5066904;27;92512;-79
2023/06/11 13:50:56;;;;;;;9.05;3.17;;;;;;;;;;5071570;27;94864;-80
2023/06/11 13:53:23;;;;;;;14.15;3.22;;;;;;;;;;5073733;27;94153;-79
2023/06/11 13:55:50;;;;;;;7.00;3.00;;;;;;;;;;5076641;27;92397;-79
2023/06/11 13:58:17;;;;;;;6.43;3.30;;;;;;;;;;5077049;27;92710;-79
2023/06/11 14:00:43;;;;;;;6.45;3.05;;;;;;;;;;5082886;27;92355;-79
2023/06/11 14:03:10;;;;;;;5.45;2.95;;;;;;;;;;5081179;27;92318;-79
2023/06/11 14:05:37;;;;;;;8.80;3.50;;;;;;;;;;5070603;27;95610;-79
2023/06/11 14:08:04;;;;;;;6.25;3.17;;;;;;;;;;5067238;27;92483;-78
2023/06/11 14:10:31;;;;;;;5.50;3.00;;;;;;;;;;5070894;27;92497;-79
2023/06/11 14:12:57;;;;;;;5.68;3.10;;;;;;;;;;5079522;27;92671;-79
2023/06/11 14:15:24;;;;;;;6.45;3.10;;;;;;;;;;5071693;27;92354;-78
2023/06/11 14:17:51;;;;;;;7.25;3.30;;;;;;;;;;5071590;27;95398;-79
2023/06/11 14:20:18;;;;;;;6.90;3.15;;;;;;;;;;5076485;27;92614;-78
2023/06/11 14:22:46;;;;;;;6.47;3.10;;;;;;;;;;5083114;27;92412;-79
2023/06/11 14:25:12;;;;;;;7.20;3.45;;;;;;;;;;5070085;27;92834;-79
2023/06/11 14:27:39;;;;;;;6.47;3.30;;;;;;;;;;5074091;27;92389;-79
2023/06/11 14:30:06;;;;;;;6.38;3.10;;;;;;;;;;5072578;27;94960;-79
2023/06/11 14:32:32;;;;;;;;;;;;;;;;;;5070069;27;93192;-79
2023/06/11 14:34:59;;;;;;;6.45;3.50;;;;;;;;;;5080031;27;92230;-79
2023/06/11 14:37:26;;;;;;;5.43;3.08;;;;;;;;;;5073337;27;95303;-77
2023/06/11 14:39:53;;;;;;;13.55;3.58;;;;;;;;;;5073669;27;92104;-78
2023/06/11 14:42:19;;;;;;;8.05;3.10;;;;;;;;;;5064083;27;94617;-79